sensor_id;sensor_type;location;lat;lon;timestamp;P1;durP1;ratioP1;P2;durP2;ratioP2
15843;SDS011;50807;52.436;13.346;2024-01-11T00:00:10;19.23;;;16.98;;
15843;SDS011;50807;52.436;13.346;2024-01-11T00:00:42;18.50;;;16.50;;
15843;SDS011;50807;52.436;13.346;2024-01-11T00:01:13;18.97;;;16.57;;
15843;SDS011;50807;52.436;13.346;2024-01-11T00:01:44;21.40;;;18.00;;
15843;SDS011;50807;52.436;13.346;2024-01-11T00:02:16;22.67;;;18.98;;
15843;SDS011;50807;52.436;13.346;2024-01-11T00:02:48;18.90;;;16.75;;
15843;SDS011;50807;52.436;13.346;2024-01-11T00:03:19;22.20;;;19.07;;
15843;SDS011;50807;52.436;13.346;2024-01-11T00:03:50;22.05;;;18.80;;
15843;SDS011;50807;52.436;13.346;2024-01-11T00:04:21;20.67;;;18.13;;
15843;SDS011;50807;52.436;13.346;2024-01-11T00:04:53;21.25;;;18.67;;
15843;SDS011;50807;52.436;13.346;2024-01-11T00:05:23;19.90;;;17.63;;
15843;SDS011;50807;52.436;13.346;2024-01-11T00:05:54;21.02;;;17.90;;
15843;SDS011;50807;52.436;13.346;2024-01-11T00:06:25;20.05;;;17.85;;
15843;SDS011;50807;52.436;13.346;2024-01-11T00:06:57;20.52;;;17.88;;
15843;SDS011;50807;52.436;13.346;2024-01-11T00:07:28;20.43;;;17.87;;
15843;SDS011;50807;52.436;13.346;2024-01-11T00:07:59;19.93;;;17.17;;
15843;SDS011;50807;52.436;13.346;2024-01-11T00:08:30;20.87;;;17.13;;
15843;SDS011;50807;52.436;13.346;2024-01-11T00:09:01;19.55;;;17.05;;
15843;SDS011;50807;52.436;13.346;2024-01-11T00:09:33;20.90;;;17.77;;
15843;SDS011;50807;52.436;13.346;2024-01-11T00:10:04;19.20;;;17.13;;
15843;SDS011;50807;52.436;13.346;2024-01-11T00:10:35;18.88;;;16.85;;
15843;SDS011;50807;52.436;13.346;2024-01-11T00:11:08;20.10;;;17.35;;
15843;SDS011;50807;52.436;13.346;2024-01-11T00:11:40;19.70;;;17.13;;
15843;SDS011;50807;52.436;13.346;2024-01-11T00:12:11;20.00;;;17.40;;
15843;SDS011;50807;52.436;13.346;2024-01-11T00:12:42;22.33;;;17.47;;
15843;SDS011;50807;52.436;13.346;2024-01-11T00:13:13;21.38;;;18.05;;
15843;SDS011;50807;52.436;13.346;2024-01-11T00:13:44;19.63;;;16.97;;
15843;SDS011;50807;52.436;13.346;2024-01-11T00:14:15;18.70;;;16.70;;
15843;SDS011;50807;52.436;13.346;2024-01-11T00:14:46;22.57;;;17.47;;
15843;SDS011;50807;52.436;13.346;2024-01-11T00:15:17;19.50;;;16.67;;
15843;SDS011;50807;52.436;13.346;2024-01-11T00:15:48;20.87;;;17.43;;
15843;SDS011;50807;52.436;13.346;2024-01-11T00:16:19;20.63;;;18.47;;
15843;SDS011;50807;52.436;13.346;2024-01-11T00:16:49;20.33;;;17.57;;
15843;SDS011;50807;52.436;13.346;2024-01-11T00:17:22;20.35;;;18.20;;
15843;SDS011;50807;52.436;13.346;2024-01-11T00:17:53;19.03;;;16.90;;
15843;SDS011;50807;52.436;13.346;2024-01-11T00:18:23;19.53;;;16.90;;
15843;SDS011;50807;52.436;13.346;2024-01-11T00:18:54;20.67;;;18.30;;
15843;SDS011;50807;52.436;13.346;2024-01-11T00:19:26;20.92;;;17.27;;
15843;SDS011;50807;52.436;13.346;2024-01-11T00:19:56;20.07;;;17.40;;
15843;SDS011;50807;52.436;13.346;2024-01-11T00:20:27;21.40;;;17.57;;
15843;SDS011;50807;52.436;13.346;2024-01-11T00:20:58;19.97;;;17.83;;
15843;SDS011;50807;52.436;13.346;2024-01-11T00:21:30;21.30;;;18.10;;
15843;SDS011;50807;52.436;13.346;2024-01-11T00:22:01;20.45;;;17.15;;
15843;SDS011;50807;52.436;13.346;2024-01-11T00:22:32;19.90;;;17.43;;
15843;SDS011;50807;52.436;13.346;2024-01-11T00:23:03;20.27;;;18.10;;
15843;SDS011;50807;52.436;13.346;2024-01-11T00:23:34;20.20;;;18.02;;
15843;SDS011;50807;52.436;13.346;2024-01-11T00:24:05;20.07;;;17.90;;
15843;SDS011;50807;52.436;13.346;2024-01-11T00:24:36;22.03;;;18.47;;
15843;SDS011;50807;52.436;13.346;2024-01-11T00:25:07;19.70;;;17.10;;
15843;SDS011;50807;52.436;13.346;2024-01-11T00:25:39;19.08;;;16.55;;
15843;SDS011;50807;52.436;13.346;2024-01-11T00:26:13;18.80;;;16.80;;
15843;SDS011;50807;52.436;13.346;2024-01-11T00:26:43;16.95;;;15.15;;
15843;SDS011;50807;52.436;13.346;2024-01-11T00:27:14;18.83;;;16.83;;
15843;SDS011;50807;52.436;13.346;2024-01-11T00:27:45;18.08;;;15.43;;
15843;SDS011;50807;52.436;13.346;2024-01-11T00:28:17;19.58;;;16.65;;
15843;SDS011;50807;52.436;13.346;2024-01-11T00:28:48;17.83;;;15.93;;
15843;SDS011;50807;52.436;13.346;2024-01-11T00:29:19;19.33;;;16.88;;
15843;SDS011;50807;52.436;13.346;2024-01-11T00:29:50;19.60;;;16.37;;
15843;SDS011;50807;52.436;13.346;2024-01-11T00:30:21;19.63;;;17.30;;
15843;SDS011;50807;52.436;13.346;2024-01-11T00:30:53;18.27;;;16.35;;
15843;SDS011;50807;52.436;13.346;2024-01-11T00:31:24;18.97;;;16.93;;
15843;SDS011;50807;52.436;13.346;2024-01-11T00:31:54;19.03;;;16.83;;
15843;SDS011;50807;52.436;13.346;2024-01-11T00:32:26;16.92;;;15.15;;
15843;SDS011;50807;52.436;13.346;2024-01-11T00:32:57;17.80;;;15.83;;
15843;SDS011;50807;52.436;13.346;2024-01-11T00:33:27;19.77;;;15.83;;
15843;SDS011;50807;52.436;13.346;2024-01-11T00:33:58;19.13;;;16.57;;
15843;SDS011;50807;52.436;13.346;2024-01-11T00:34:30;17.65;;;15.73;;
15843;SDS011;50807;52.436;13.346;2024-01-11T00:35:01;18.47;;;16.17;;
15843;SDS011;50807;52.436;13.346;2024-01-11T00:35:32;18.17;;;16.20;;
15843;SDS011;50807;52.436;13.346;2024-01-11T00:36:04;18.48;;;15.77;;
15843;SDS011;50807;52.436;13.346;2024-01-11T00:36:35;17.80;;;15.98;;
15843;SDS011;50807;52.436;13.346;2024-01-11T00:37:06;17.45;;;15.65;;
15843;SDS011;50807;52.436;13.346;2024-01-11T00:37:37;18.60;;;16.23;;
15843;SDS011;50807;52.436;13.346;2024-01-11T00:38:09;17.88;;;15.90;;
15843;SDS011;50807;52.436;13.346;2024-01-11T00:38:40;17.10;;;15.30;;
15843;SDS011;50807;52.436;13.346;2024-01-11T00:39:11;17.50;;;15.60;;
15843;SDS011;50807;52.436;13.346;2024-01-11T00:39:41;17.27;;;15.40;;
15843;SDS011;50807;52.436;13.346;2024-01-11T00:40:13;16.88;;;15.07;;
15843;SDS011;50807;52.436;13.346;2024-01-11T00:40:44;17.93;;;16.03;;
15843;SDS011;50807;52.436;13.346;2024-01-11T00:41:16;18.17;;;16.20;;
15843;SDS011;50807;52.436;13.346;2024-01-11T00:41:47;18.65;;;16.50;;
15843;SDS011;50807;52.436;13.346;2024-01-11T00:42:19;16.55;;;14.77;;
15843;SDS011;50807;52.436;13.346;2024-01-11T00:42:49;17.40;;;15.47;;
15843;SDS011;50807;52.436;13.346;2024-01-11T00:43:20;18.43;;;15.93;;
15843;SDS011;50807;52.436;13.346;2024-01-11T00:43:51;17.00;;;15.20;;
15843;SDS011;50807;52.436;13.346;2024-01-11T00:44:23;17.27;;;15.38;;
15843;SDS011;50807;52.436;13.346;2024-01-11T00:44:54;17.97;;;16.00;;
15843;SDS011;50807;52.436;13.346;2024-01-11T00:45:25;16.65;;;14.85;;
15843;SDS011;50807;52.436;13.346;2024-01-11T00:45:55;17.27;;;14.53;;
15843;SDS011;50807;52.436;13.346;2024-01-11T00:46:27;16.92;;;15.13;;
15843;SDS011;50807;52.436;13.346;2024-01-11T00:46:58;17.70;;;15.10;;
15843;SDS011;50807;52.436;13.346;2024-01-11T00:47:29;16.43;;;14.73;;
15843;SDS011;50807;52.436;13.346;2024-01-11T00:47:59;16.10;;;14.50;;
15843;SDS011;50807;52.436;13.346;2024-01-11T00:48:32;17.80;;;14.75;;
15843;SDS011;50807;52.436;13.346;2024-01-11T00:49:03;16.43;;;14.27;;
15843;SDS011;50807;52.436;13.346;2024-01-11T00:49:34;17.23;;;14.63;;
15843;SDS011;50807;52.436;13.346;2024-01-11T00:50:05;15.95;;;14.25;;
15843;SDS011;50807;52.436;13.346;2024-01-11T00:50:39;15.70;;;14.00;;
15843;SDS011;50807;52.436;13.346;2024-01-11T00:51:10;16.13;;;13.95;;
15843;SDS011;50807;52.436;13.346;2024-01-11T00:51:41;16.13;;;14.20;;
15843;SDS011;50807;52.436;13.346;2024-01-11T00:52:11;17.63;;;14.87;;
15843;SDS011;50807;52.436;13.346;2024-01-11T00:52:43;15.95;;;14.05;;
15843;SDS011;50807;52.436;13.346;2024-01-11T00:53:14;15.33;;;13.83;;
15843;SDS011;50807;52.436;13.346;2024-01-11T00:53:45;16.77;;;14.27;;
15843;SDS011;50807;52.436;13.346;2024-01-11T00:54:16;16.93;;;15.00;;
15843;SDS011;50807;52.436;13.346;2024-01-11T00:54:47;16.40;;;14.55;;
15843;SDS011;50807;52.436;13.346;2024-01-11T00:55:18;15.67;;;13.67;;
15843;SDS011;50807;52.436;13.346;2024-01-11T00:55:49;16.70;;;13.80;;
15843;SDS011;50807;52.436;13.346;2024-01-11T00:56:22;15.25;;;13.63;;
15843;SDS011;50807;52.436;13.346;2024-01-11T00:56:54;14.13;;;12.73;;
15843;SDS011;50807;52.436;13.346;2024-01-11T00:57:24;13.60;;;12.20;;
15843;SDS011;50807;52.436;13.346;2024-01-11T00:57:55;13.83;;;12.40;;
15843;SDS011;50807;52.436;13.346;2024-01-11T00:58:26;14.20;;;12.77;;
15843;SDS011;50807;52.436;13.346;2024-01-11T00:58:57;14.00;;;12.55;;
15843;SDS011;50807;52.436;13.346;2024-01-11T00:59:28;14.77;;;12.87;;
15843;SDS011;50807;52.436;13.346;2024-01-11T00:59:59;15.73;;;12.75;;
15843;SDS011;50807;52.436;13.346;2024-01-11T01:00:30;12.73;;;11.43;;
15843;SDS011;50807;52.436;13.346;2024-01-11T01:01:02;13.32;;;11.70;;
15843;SDS011;50807;52.436;13.346;2024-01-11T01:01:33;14.25;;;12.75;;
15843;SDS011;50807;52.436;13.346;2024-01-11T01:02:03;13.97;;;12.50;;
15843;SDS011;50807;52.436;13.346;2024-01-11T01:02:34;14.30;;;12.80;;
15843;SDS011;50807;52.436;13.346;2024-01-11T01:03:06;16.42;;;13.20;;
15843;SDS011;50807;52.436;13.346;2024-01-11T01:03:37;13.47;;;12.00;;
15843;SDS011;50807;52.436;13.346;2024-01-11T01:04:08;14.02;;;12.60;;
15843;SDS011;50807;52.436;13.346;2024-01-11T01:04:39;14.63;;;13.17;;
15843;SDS011;50807;52.436;13.346;2024-01-11T01:05:10;14.30;;;12.52;;
15843;SDS011;50807;52.436;13.346;2024-01-11T01:05:41;13.63;;;12.20;;
15843;SDS011;50807;52.436;13.346;2024-01-11T01:06:13;12.93;;;11.63;;
15843;SDS011;50807;52.436;13.346;2024-01-11T01:06:44;14.38;;;12.07;;
15843;SDS011;50807;52.436;13.346;2024-01-11T01:07:16;12.50;;;11.20;;
15843;SDS011;50807;52.436;13.346;2024-01-11T01:07:47;13.53;;;12.13;;
15843;SDS011;50807;52.436;13.346;2024-01-11T01:08:17;13.07;;;11.67;;
15843;SDS011;50807;52.436;13.346;2024-01-11T01:08:48;12.80;;;11.50;;
15843;SDS011;50807;52.436;13.346;2024-01-11T01:09:19;13.27;;;11.87;;
15843;SDS011;50807;52.436;13.346;2024-01-11T01:09:51;13.20;;;11.50;;
15843;SDS011;50807;52.436;13.346;2024-01-11T01:10:21;14.33;;;12.43;;
15843;SDS011;50807;52.436;13.346;2024-01-11T01:10:53;12.60;;;11.30;;
15843;SDS011;50807;52.436;13.346;2024-01-11T01:11:25;13.13;;;11.37;;
15843;SDS011;50807;52.436;13.346;2024-01-11T01:11:56;14.18;;;12.68;;
15843;SDS011;50807;52.436;13.346;2024-01-11T01:12:27;12.63;;;11.33;;
15843;SDS011;50807;52.436;13.346;2024-01-11T01:12:58;12.90;;;11.50;;
15843;SDS011;50807;52.436;13.346;2024-01-11T01:13:29;14.17;;;12.53;;
15843;SDS011;50807;52.436;13.346;2024-01-11T01:14:01;12.77;;;11.43;;
15843;SDS011;50807;52.436;13.346;2024-01-11T01:14:31;13.73;;;11.33;;
15843;SDS011;50807;52.436;13.346;2024-01-11T01:15:02;14.00;;;11.73;;
15843;SDS011;50807;52.436;13.346;2024-01-11T01:15:34;12.45;;;11.15;;
15843;SDS011;50807;52.436;13.346;2024-01-11T01:16:06;13.52;;;12.07;;
15843;SDS011;50807;52.436;13.346;2024-01-11T01:16:36;12.60;;;11.20;;
15843;SDS011;50807;52.436;13.346;2024-01-11T01:17:07;12.60;;;10.83;;
15843;SDS011;50807;52.436;13.346;2024-01-11T01:17:38;12.40;;;11.10;;
15843;SDS011;50807;52.436;13.346;2024-01-11T01:18:10;13.68;;;11.95;;
15843;SDS011;50807;52.436;13.346;2024-01-11T01:18:40;11.07;;;9.97;;
15843;SDS011;50807;52.436;13.346;2024-01-11T01:19:11;11.57;;;10.13;;
15843;SDS011;50807;52.436;13.346;2024-01-11T01:19:43;11.47;;;10.37;;
15843;SDS011;50807;52.436;13.346;2024-01-11T01:20:15;11.60;;;10.40;;
15843;SDS011;50807;52.436;13.346;2024-01-11T01:20:46;10.93;;;9.83;;
15843;SDS011;50807;52.436;13.346;2024-01-11T01:21:16;11.73;;;10.10;;
15843;SDS011;50807;52.436;13.346;2024-01-11T01:21:47;10.97;;;9.87;;
15843;SDS011;50807;52.436;13.346;2024-01-11T01:22:19;11.93;;;10.73;;
15843;SDS011;50807;52.436;13.346;2024-01-11T01:22:49;10.40;;;9.40;;
15843;SDS011;50807;52.436;13.346;2024-01-11T01:23:20;10.27;;;9.27;;
15843;SDS011;50807;52.436;13.346;2024-01-11T01:23:51;11.63;;;10.50;;
15843;SDS011;50807;52.436;13.346;2024-01-11T01:24:23;12.60;;;10.65;;
15843;SDS011;50807;52.436;13.346;2024-01-11T01:24:53;11.57;;;10.47;;
15843;SDS011;50807;52.436;13.346;2024-01-11T01:25:24;11.27;;;10.18;;
15843;SDS011;50807;52.436;13.346;2024-01-11T01:25:55;11.30;;;10.15;;
15843;SDS011;50807;52.436;13.346;2024-01-11T01:26:27;11.53;;;10.33;;
15843;SDS011;50807;52.436;13.346;2024-01-11T01:27:00;10.85;;;9.77;;
15843;SDS011;50807;52.436;13.346;2024-01-11T01:27:30;11.20;;;10.10;;
15843;SDS011;50807;52.436;13.346;2024-01-11T01:28:01;10.63;;;9.47;;
15843;SDS011;50807;52.436;13.346;2024-01-11T01:28:32;12.48;;;11.18;;
15843;SDS011;50807;52.436;13.346;2024-01-11T01:29:04;11.48;;;10.25;;
15843;SDS011;50807;52.436;13.346;2024-01-11T01:29:35;11.00;;;9.85;;
15843;SDS011;50807;52.436;13.346;2024-01-11T01:30:06;10.90;;;9.80;;
15843;SDS011;50807;52.436;13.346;2024-01-11T01:30:38;11.25;;;10.13;;
15843;SDS011;50807;52.436;13.346;2024-01-11T01:31:10;11.23;;;10.18;;
15843;SDS011;50807;52.436;13.346;2024-01-11T01:31:41;12.30;;;11.00;;
15843;SDS011;50807;52.436;13.346;2024-01-11T01:32:12;11.77;;;10.57;;
15843;SDS011;50807;52.436;13.346;2024-01-11T01:32:44;10.95;;;9.73;;
15843;SDS011;50807;52.436;13.346;2024-01-11T01:33:14;12.37;;;10.87;;
15843;SDS011;50807;52.436;13.346;2024-01-11T01:33:45;11.93;;;10.63;;
15843;SDS011;50807;52.436;13.346;2024-01-11T01:34:16;11.53;;;10.33;;
15843;SDS011;50807;52.436;13.346;2024-01-11T01:34:47;12.00;;;10.52;;
15843;SDS011;50807;52.436;13.346;2024-01-11T01:35:18;12.40;;;11.20;;
15843;SDS011;50807;52.436;13.346;2024-01-11T01:35:49;11.93;;;10.10;;
15843;SDS011;50807;52.436;13.346;2024-01-11T01:36:20;11.47;;;10.27;;
15843;SDS011;50807;52.436;13.346;2024-01-11T01:36:51;12.90;;;10.40;;
15843;SDS011;50807;52.436;13.346;2024-01-11T01:37:22;11.50;;;10.30;;
15843;SDS011;50807;52.436;13.346;2024-01-11T01:37:53;12.30;;;11.03;;
15843;SDS011;50807;52.436;13.346;2024-01-11T01:38:24;11.97;;;10.67;;
15843;SDS011;50807;52.436;13.346;2024-01-11T01:38:55;13.13;;;10.98;;
15843;SDS011;50807;52.436;13.346;2024-01-11T01:39:26;11.53;;;10.33;;
15843;SDS011;50807;52.436;13.346;2024-01-11T01:39:57;12.47;;;10.97;;
15843;SDS011;50807;52.436;13.346;2024-01-11T01:40:29;11.63;;;10.43;;
15843;SDS011;50807;52.436;13.346;2024-01-11T01:41:01;12.63;;;11.20;;
15843;SDS011;50807;52.436;13.346;2024-01-11T01:41:34;12.68;;;11.10;;
15843;SDS011;50807;52.436;13.346;2024-01-11T01:42:05;14.25;;;11.40;;
15843;SDS011;50807;52.436;13.346;2024-01-11T01:42:36;11.10;;;10.00;;
15843;SDS011;50807;52.436;13.346;2024-01-11T01:43:12;11.60;;;10.35;;
15843;SDS011;50807;52.436;13.346;2024-01-11T01:43:43;11.23;;;10.13;;
15843;SDS011;50807;52.436;13.346;2024-01-11T01:44:14;11.63;;;10.43;;
15843;SDS011;50807;52.436;13.346;2024-01-11T01:44:44;11.97;;;10.73;;
15843;SDS011;50807;52.436;13.346;2024-01-11T01:45:16;11.40;;;10.20;;
15843;SDS011;50807;52.436;13.346;2024-01-11T01:45:47;11.23;;;9.93;;
15843;SDS011;50807;52.436;13.346;2024-01-11T01:46:19;11.10;;;9.87;;
15843;SDS011;50807;52.436;13.346;2024-01-11T01:46:53;11.30;;;10.10;;
15843;SDS011;50807;52.436;13.346;2024-01-11T01:47:25;12.85;;;9.95;;
15843;SDS011;50807;52.436;13.346;2024-01-11T01:47:57;10.43;;;9.25;;
15843;SDS011;50807;52.436;13.346;2024-01-11T01:48:28;10.77;;;9.23;;
15843;SDS011;50807;52.436;13.346;2024-01-11T01:48:59;10.55;;;9.40;;
15843;SDS011;50807;52.436;13.346;2024-01-11T01:49:31;9.82;;;8.82;;
15843;SDS011;50807;52.436;13.346;2024-01-11T01:50:03;10.15;;;9.15;;
15843;SDS011;50807;52.436;13.346;2024-01-11T01:50:35;9.35;;;8.25;;
15843;SDS011;50807;52.436;13.346;2024-01-11T01:51:06;10.53;;;9.03;;
15843;SDS011;50807;52.436;13.346;2024-01-11T01:51:38;9.90;;;8.90;;
15843;SDS011;50807;52.436;13.346;2024-01-11T01:52:09;8.95;;;8.05;;
15843;SDS011;50807;52.436;13.346;2024-01-11T01:52:44;9.63;;;8.55;;
15843;SDS011;50807;52.436;13.346;2024-01-11T01:53:14;9.70;;;8.70;;
15843;SDS011;50807;52.436;13.346;2024-01-11T01:53:47;9.02;;;8.10;;
15843;SDS011;50807;52.436;13.346;2024-01-11T01:54:20;9.63;;;8.65;;
15843;SDS011;50807;52.436;13.346;2024-01-11T01:54:53;10.45;;;9.05;;
15843;SDS011;50807;52.436;13.346;2024-01-11T01:55:25;9.00;;;8.10;;
15843;SDS011;50807;52.436;13.346;2024-01-11T01:55:58;8.88;;;8.00;;
15843;SDS011;50807;52.436;13.346;2024-01-11T01:56:29;9.65;;;8.65;;
15843;SDS011;50807;52.436;13.346;2024-01-11T01:57:02;7.63;;;6.90;;
15843;SDS011;50807;52.436;13.346;2024-01-11T01:57:34;9.05;;;8.13;;
15843;SDS011;50807;52.436;13.346;2024-01-11T01:58:05;10.13;;;8.88;;
15843;SDS011;50807;52.436;13.346;2024-01-11T01:58:37;10.38;;;9.23;;
15843;SDS011;50807;52.436;13.346;2024-01-11T01:59:08;10.48;;;9.38;;
15843;SDS011;50807;52.436;13.346;2024-01-11T01:59:40;10.25;;;9.02;;
15843;SDS011;50807;52.436;13.346;2024-01-11T02:00:13;9.90;;;8.90;;
15843;SDS011;50807;52.436;13.346;2024-01-11T02:00:45;10.65;;;9.43;;
15843;SDS011;50807;52.436;13.346;2024-01-11T02:01:19;11.35;;;9.13;;
15843;SDS011;50807;52.436;13.346;2024-01-11T02:01:53;9.48;;;8.48;;
15843;SDS011;50807;52.436;13.346;2024-01-11T02:02:24;10.50;;;9.27;;
15843;SDS011;50807;52.436;13.346;2024-01-11T02:02:58;9.77;;;8.77;;
15843;SDS011;50807;52.436;13.346;2024-01-11T02:03:29;9.60;;;8.60;;
15843;SDS011;50807;52.436;13.346;2024-01-11T02:04:00;10.25;;;9.25;;
15843;SDS011;50807;52.436;13.346;2024-01-11T02:04:32;9.95;;;8.95;;
15843;SDS011;50807;52.436;13.346;2024-01-11T02:05:04;10.50;;;9.48;;
15843;SDS011;50807;52.436;13.346;2024-01-11T02:05:36;9.85;;;8.85;;
15843;SDS011;50807;52.436;13.346;2024-01-11T02:06:07;10.63;;;9.57;;
15843;SDS011;50807;52.436;13.346;2024-01-11T02:06:39;10.23;;;8.80;;
15843;SDS011;50807;52.436;13.346;2024-01-11T02:07:12;10.55;;;9.43;;
15843;SDS011;50807;52.436;13.346;2024-01-11T02:07:44;9.48;;;8.57;;
15843;SDS011;50807;52.436;13.346;2024-01-11T02:08:15;9.48;;;8.48;;
15843;SDS011;50807;52.436;13.346;2024-01-11T02:08:48;9.73;;;8.55;;
15843;SDS011;50807;52.436;13.346;2024-01-11T02:09:22;9.65;;;8.68;;
15843;SDS011;50807;52.436;13.346;2024-01-11T02:09:54;9.43;;;8.43;;
15843;SDS011;50807;52.436;13.346;2024-01-11T02:10:26;9.48;;;8.48;;
15843;SDS011;50807;52.436;13.346;2024-01-11T02:10:59;10.30;;;8.85;;
15843;SDS011;50807;52.436;13.346;2024-01-11T02:11:30;9.05;;;8.15;;
15843;SDS011;50807;52.436;13.346;2024-01-11T02:12:04;8.57;;;7.68;;
15843;SDS011;50807;52.436;13.346;2024-01-11T02:12:36;9.70;;;8.70;;
15843;SDS011;50807;52.436;13.346;2024-01-11T02:13:07;9.90;;;8.90;;
15843;SDS011;50807;52.436;13.346;2024-01-11T02:13:39;10.48;;;9.00;;
15843;SDS011;50807;52.436;13.346;2024-01-11T02:14:11;8.73;;;7.88;;
15843;SDS011;50807;52.436;13.346;2024-01-11T02:14:41;9.93;;;8.50;;
15843;SDS011;50807;52.436;13.346;2024-01-11T02:15:13;9.75;;;8.40;;
15843;SDS011;50807;52.436;13.346;2024-01-11T02:15:45;10.07;;;8.55;;
15843;SDS011;50807;52.436;13.346;2024-01-11T02:16:16;10.57;;;9.40;;
15843;SDS011;50807;52.436;13.346;2024-01-11T02:16:47;9.13;;;8.27;;
15843;SDS011;50807;52.436;13.346;2024-01-11T02:17:18;9.40;;;8.47;;
15843;SDS011;50807;52.436;13.346;2024-01-11T02:17:49;10.95;;;9.70;;
15843;SDS011;50807;52.436;13.346;2024-01-11T02:18:20;9.73;;;8.73;;
15843;SDS011;50807;52.436;13.346;2024-01-11T02:18:51;9.47;;;8.47;;
15843;SDS011;50807;52.436;13.346;2024-01-11T02:19:22;9.23;;;8.23;;
15843;SDS011;50807;52.436;13.346;2024-01-11T02:19:53;10.05;;;8.40;;
15843;SDS011;50807;52.436;13.346;2024-01-11T02:20:24;9.70;;;8.50;;
15843;SDS011;50807;52.436;13.346;2024-01-11T02:20:56;9.68;;;8.65;;
15843;SDS011;50807;52.436;13.346;2024-01-11T02:21:27;10.10;;;8.65;;
15843;SDS011;50807;52.436;13.346;2024-01-11T02:22:02;9.10;;;8.07;;
15843;SDS011;50807;52.436;13.346;2024-01-11T02:22:42;9.35;;;8.40;;
15843;SDS011;50807;52.436;13.346;2024-01-11T02:23:24;9.27;;;8.02;;
15843;SDS011;50807;52.436;13.346;2024-01-11T02:24:02;10.57;;;8.88;;
15843;SDS011;50807;52.436;13.346;2024-01-11T02:24:35;10.18;;;8.52;;
15843;SDS011;50807;52.436;13.346;2024-01-11T02:25:05;8.67;;;7.67;;
15843;SDS011;50807;52.436;13.346;2024-01-11T02:25:37;10.05;;;8.68;;
15843;SDS011;50807;52.436;13.346;2024-01-11T02:26:07;9.70;;;8.37;;
15843;SDS011;50807;52.436;13.346;2024-01-11T02:27:29;10.20;;;8.20;;
15843;SDS011;50807;52.436;13.346;2024-01-11T02:28:00;9.13;;;8.23;;
15843;SDS011;50807;52.436;13.346;2024-01-11T02:28:32;9.18;;;8.18;;
15843;SDS011;50807;52.436;13.346;2024-01-11T02:29:03;9.70;;;8.70;;
15843;SDS011;50807;52.436;13.346;2024-01-11T02:29:33;9.00;;;8.10;;
15843;SDS011;50807;52.436;13.346;2024-01-11T02:30:04;9.03;;;8.13;;
15843;SDS011;50807;52.436;13.346;2024-01-11T02:30:37;8.75;;;7.63;;
15843;SDS011;50807;52.436;13.346;2024-01-11T02:31:08;9.23;;;7.90;;
15843;SDS011;50807;52.436;13.346;2024-01-11T02:31:39;8.67;;;7.77;;
15843;SDS011;50807;52.436;13.346;2024-01-11T02:32:10;9.40;;;8.50;;
15843;SDS011;50807;52.436;13.346;2024-01-11T02:32:42;9.95;;;8.95;;
15843;SDS011;50807;52.436;13.346;2024-01-11T02:33:14;9.57;;;8.57;;
15843;SDS011;50807;52.436;13.346;2024-01-11T02:33:46;9.73;;;8.32;;
15843;SDS011;50807;52.436;13.346;2024-01-11T02:34:18;10.50;;;8.25;;
15843;SDS011;50807;52.436;13.346;2024-01-11T02:34:50;8.88;;;7.97;;
15843;SDS011;50807;52.436;13.346;2024-01-11T02:35:21;9.00;;;8.10;;
15843;SDS011;50807;52.436;13.346;2024-01-11T02:35:52;8.82;;;7.93;;
15843;SDS011;50807;52.436;13.346;2024-01-11T02:36:23;9.15;;;8.25;;
15843;SDS011;50807;52.436;13.346;2024-01-11T02:36:57;9.18;;;8.27;;
15843;SDS011;50807;52.436;13.346;2024-01-11T02:37:27;8.67;;;7.87;;
15843;SDS011;50807;52.436;13.346;2024-01-11T02:37:58;8.77;;;7.88;;
15843;SDS011;50807;52.436;13.346;2024-01-11T02:38:30;9.13;;;8.23;;
15843;SDS011;50807;52.436;13.346;2024-01-11T02:39:04;8.73;;;7.75;;
15843;SDS011;50807;52.436;13.346;2024-01-11T02:39:36;9.07;;;7.93;;
15843;SDS011;50807;52.436;13.346;2024-01-11T02:40:08;8.85;;;7.95;;
15843;SDS011;50807;52.436;13.346;2024-01-11T02:40:40;8.15;;;7.35;;
15843;SDS011;50807;52.436;13.346;2024-01-11T02:41:14;8.73;;;7.82;;
15843;SDS011;50807;52.436;13.346;2024-01-11T02:41:47;8.38;;;7.45;;
15843;SDS011;50807;52.436;13.346;2024-01-11T02:42:20;9.02;;;8.13;;
15843;SDS011;50807;52.436;13.346;2024-01-11T02:42:51;8.77;;;7.87;;
15843;SDS011;50807;52.436;13.346;2024-01-11T02:43:22;8.65;;;7.75;;
15843;SDS011;50807;52.436;13.346;2024-01-11T02:43:53;8.60;;;7.70;;
15843;SDS011;50807;52.436;13.346;2024-01-11T02:44:25;8.55;;;7.75;;
15843;SDS011;50807;52.436;13.346;2024-01-11T02:44:56;8.77;;;7.93;;
15843;SDS011;50807;52.436;13.346;2024-01-11T02:45:28;8.85;;;7.95;;
15843;SDS011;50807;52.436;13.346;2024-01-11T02:45:59;8.50;;;7.70;;
15843;SDS011;50807;52.436;13.346;2024-01-11T02:46:29;8.83;;;7.93;;
15843;SDS011;50807;52.436;13.346;2024-01-11T02:47:01;8.80;;;7.90;;
15843;SDS011;50807;52.436;13.346;2024-01-11T02:47:32;9.52;;;8.52;;
15843;SDS011;50807;52.436;13.346;2024-01-11T02:48:03;9.10;;;8.20;;
15843;SDS011;50807;52.436;13.346;2024-01-11T02:48:35;8.05;;;7.25;;
15843;SDS011;50807;52.436;13.346;2024-01-11T02:49:06;8.77;;;7.97;;
15843;SDS011;50807;52.436;13.346;2024-01-11T02:49:37;9.17;;;7.93;;
15843;SDS011;50807;52.436;13.346;2024-01-11T02:50:08;8.10;;;7.30;;
15843;SDS011;50807;52.436;13.346;2024-01-11T02:50:39;8.07;;;7.28;;
15843;SDS011;50807;52.436;13.346;2024-01-11T02:51:10;7.90;;;7.10;;
15843;SDS011;50807;52.436;13.346;2024-01-11T02:51:41;7.50;;;6.77;;
15843;SDS011;50807;52.436;13.346;2024-01-11T02:52:12;7.57;;;6.77;;
15843;SDS011;50807;52.436;13.346;2024-01-11T02:52:42;6.93;;;6.23;;
15843;SDS011;50807;52.436;13.346;2024-01-11T02:53:14;7.22;;;6.53;;
15843;SDS011;50807;52.436;13.346;2024-01-11T02:53:45;6.93;;;6.23;;
15843;SDS011;50807;52.436;13.346;2024-01-11T02:54:17;6.50;;;5.90;;
15843;SDS011;50807;52.436;13.346;2024-01-11T02:54:48;6.60;;;5.95;;
15843;SDS011;50807;52.436;13.346;2024-01-11T02:55:20;6.95;;;5.93;;
15843;SDS011;50807;52.436;13.346;2024-01-11T02:55:50;7.40;;;6.03;;
15843;SDS011;50807;52.436;13.346;2024-01-11T02:56:21;6.60;;;5.80;;
15843;SDS011;50807;52.436;13.346;2024-01-11T02:56:53;5.32;;;4.82;;
15843;SDS011;50807;52.436;13.346;2024-01-11T02:57:27;6.35;;;5.70;;
15843;SDS011;50807;52.436;13.346;2024-01-11T02:57:57;5.33;;;4.83;;
15843;SDS011;50807;52.436;13.346;2024-01-11T02:58:28;6.00;;;5.40;;
15843;SDS011;50807;52.436;13.346;2024-01-11T02:59:00;6.25;;;5.65;;
15843;SDS011;50807;52.436;13.346;2024-01-11T02:59:31;5.63;;;5.03;;
15843;SDS011;50807;52.436;13.346;2024-01-11T03:00:02;7.30;;;5.55;;
15843;SDS011;50807;52.436;13.346;2024-01-11T03:00:34;5.70;;;5.10;;
15843;SDS011;50807;52.436;13.346;2024-01-11T03:01:05;6.77;;;6.07;;
15843;SDS011;50807;52.436;13.346;2024-01-11T03:01:37;6.28;;;5.57;;
15843;SDS011;50807;52.436;13.346;2024-01-11T03:02:07;6.33;;;5.67;;
15843;SDS011;50807;52.436;13.346;2024-01-11T03:02:38;6.47;;;5.80;;
15843;SDS011;50807;52.436;13.346;2024-01-11T03:03:09;6.10;;;5.50;;
15843;SDS011;50807;52.436;13.346;2024-01-11T03:03:41;6.82;;;6.18;;
15843;SDS011;50807;52.436;13.346;2024-01-11T03:04:12;6.93;;;6.23;;